createdAt,value
2023-01-28T00:01:44.634Z,42.03
2023-01-28T00:04:12.777Z,34.25
2023-01-28T00:06:40.615Z,28.92
2023-01-28T00:09:08.800Z,26.35
2023-01-28T00:11:37.055Z,25.80
2023-01-28T00:14:05.065Z,31.88
2023-01-28T00:16:33.116Z,30.42
2023-01-28T00:19:00.681Z,25.50
2023-01-28T00:21:28.412Z,32.42
2023-01-28T00:23:57.030Z,31.13
2023-01-28T00:26:25.436Z,26.90
2023-01-28T00:28:53.177Z,31.40
2023-01-28T00:31:23.909Z,27.42
2023-01-28T00:33:52.801Z,27.10
2023-01-28T00:36:23.048Z,30.67
2023-01-28T00:38:52.589Z,27.83
2023-01-28T00:41:23.776Z,26.30
2023-01-28T00:43:53.505Z,36.77
2023-01-28T00:46:22.986Z,25.98
2023-01-28T00:48:50.728Z,31.02
2023-01-28T00:51:20.716Z,30.80
2023-01-28T00:53:50.426Z,25.13
2023-01-28T00:56:19.613Z,32.97
2023-01-28T00:58:48.386Z,25.53
2023-01-28T01:01:21.718Z,22.63
2023-01-28T01:03:57.600Z,25.90
2023-01-28T01:06:25.904Z,27.85
2023-01-28T01:08:53.383Z,30.02
2023-01-28T01:11:21.245Z,24.95
2023-01-28T01:13:54.956Z,28.92
2023-01-28T01:16:24.931Z,25.20
2023-01-28T01:18:54.297Z,25.85
2023-01-28T01:21:25.127Z,23.17
2023-01-28T01:23:53.925Z,23.65
2023-01-28T01:26:23.589Z,21.87
2023-01-28T01:28:52.460Z,23.90
2023-01-28T01:31:21.982Z,27.20
2023-01-28T01:33:52.181Z,35.30
2023-01-28T01:36:22.252Z,26.73
2023-01-28T01:38:55.395Z,24.17
2023-01-28T01:41:29.536Z,28.10
2023-01-28T01:44:02.979Z,23.08
2023-01-28T01:46:31.285Z,24.00
2023-01-28T01:49:06.551Z,36.00
2023-01-28T01:51:36.557Z,31.13
2023-01-28T01:54:05.651Z,33.90
2023-01-28T01:56:38.665Z,29.92
2023-01-28T01:59:12.014Z,26.60
2023-01-28T02:01:41.540Z,23.95
2023-01-28T02:04:17.453Z,33.38
2023-01-28T02:06:48.529Z,23.33
2023-01-28T02:09:32.504Z,23.83
2023-01-28T02:12:11.310Z,26.77
2023-01-28T02:14:44.247Z,24.50
2023-01-28T02:17:12.531Z,21.08
2023-01-28T02:20:07.991Z,21.60
2023-01-28T02:22:39.086Z,26.25
2023-01-28T02:25:34.140Z,22.15
2023-01-28T02:28:27.354Z,22.50
2023-01-28T02:31:04.743Z,23.80
2023-01-28T02:33:50.369Z,31.33
2023-01-28T02:36:41.912Z,32.53
2023-01-28T02:39:19.007Z,27.33
2023-01-28T02:41:52.164Z,26.73
2023-01-28T02:44:20.421Z,30.48
2023-01-28T02:47:06.593Z,34.00
2023-01-28T02:49:41.314Z,32.30
2023-01-28T02:53:20.987Z,26.83
2023-01-28T02:56:29.546Z,39.20
2023-01-28T02:59:32.359Z,38.75
2023-01-28T03:02:20.534Z,38.90
2023-01-28T03:04:57.121Z,36.72
2023-01-28T03:07:30.301Z,29.20
2023-01-28T03:10:04.368Z,24.83
2023-01-28T03:12:54.194Z,29.63
2023-01-28T03:16:01.936Z,27.20
2023-01-28T03:19:00.124Z,27.02
2023-01-28T03:21:53.438Z,31.80
2023-01-28T03:24:44.834Z,28.70
2023-01-28T03:27:37.152Z,28.83
2023-01-28T03:30:33.442Z,24.77
2023-01-28T03:33:25.209Z,28.52
2023-01-28T03:36:12.263Z,28.88
2023-01-28T03:38:42.323Z,29.73
2023-01-28T03:41:12.919Z,24.83
2023-01-28T03:43:41.872Z,28.05
2023-01-28T03:46:10.117Z,34.13
2023-01-28T03:48:37.750Z,26.45
2023-01-28T03:51:08.109Z,26.63
2023-01-28T03:53:36.465Z,26.85
2023-01-28T03:56:04.694Z,23.77
2023-01-28T03:58:51.921Z,25.00
2023-01-28T04:01:20.846Z,25.97
2023-01-28T04:03:49.171Z,24.13
2023-01-28T04:06:24.321Z,27.38
2023-01-28T04:09:07.635Z,28.98
2023-01-28T04:11:54.484Z,29.13
2023-01-28T04:14:27.615Z,27.45
2023-01-28T04:17:03.988Z,31.40
2023-01-28T04:19:37.368Z,26.73
2023-01-28T04:22:10.666Z,22.98
2023-01-28T04:24:39.772Z,22.52
2023-01-28T04:27:08.351Z,27.17
2023-01-28T04:29:36.124Z,26.83
2023-01-28T04:32:22.669Z,30.20
2023-01-28T04:35:04.249Z,28.77
2023-01-28T04:37:58.998Z,28.77
2023-01-28T04:40:41.119Z,31.13
2023-01-28T04:43:20.816Z,25.88
2023-01-28T04:45:51.599Z,25.13
2023-01-28T04:48:42.911Z,23.52
2023-01-28T04:51:42.991Z,30.60
2023-01-28T04:54:33.213Z,28.58
2023-01-28T04:57:03.619Z,26.10
2023-01-28T04:59:32.597Z,24.92
2023-01-28T05:02:00.739Z,25.60
2023-01-28T05:04:28.841Z,27.67
2023-01-28T05:06:58.541Z,23.90
2023-01-28T05:09:31.512Z,23.13
2023-01-28T05:11:59.104Z,22.63
2023-01-28T05:14:26.703Z,23.90
2023-01-28T05:17:10.027Z,25.10
2023-01-28T05:19:37.643Z,24.00
2023-01-28T05:22:09.688Z,28.65
2023-01-28T05:24:42.477Z,27.65
2023-01-28T05:27:10.255Z,26.42
2023-01-28T05:29:37.823Z,25.10
2023-01-28T05:32:05.754Z,27.13
2023-01-28T05:34:33.995Z,32.50
2023-01-28T05:37:08.176Z,31.85
2023-01-28T05:39:38.007Z,28.33
2023-01-28T05:42:06.231Z,25.77
2023-01-28T05:44:37.975Z,26.60
2023-01-28T05:47:24.405Z,26.85
2023-01-28T05:49:57.540Z,31.67
2023-01-28T05:52:43.845Z,28.55
2023-01-28T05:55:21.009Z,26.38
2023-01-28T05:57:49.812Z,30.10
2023-01-28T06:00:20.000Z,29.42
2023-01-28T06:02:47.491Z,32.83
2023-01-28T06:05:17.002Z,30.15
2023-01-28T06:07:45.801Z,29.85
2023-01-28T06:10:18.124Z,30.30
2023-01-28T06:12:46.387Z,38.17
2023-01-28T06:15:33.474Z,39.38
2023-01-28T06:18:03.743Z,37.00
2023-01-28T06:20:34.720Z,35.83
2023-01-28T06:23:02.519Z,36.33
2023-01-28T06:25:30.114Z,31.20
2023-01-28T06:28:01.689Z,27.47
2023-01-28T06:30:29.234Z,32.07
2023-01-28T06:32:57.472Z,33.30
2023-01-28T06:35:25.115Z,38.20
2023-01-28T06:37:53.779Z,32.70
2023-01-28T06:40:23.085Z,31.70
2023-01-28T06:42:50.709Z,30.90
2023-01-28T06:45:19.216Z,29.88
2023-01-28T06:47:46.771Z,28.10
2023-01-28T06:50:15.051Z,31.15
2023-01-28T06:52:42.964Z,35.17
2023-01-28T06:55:10.730Z,33.22
2023-01-28T06:57:42.629Z,48.03
2023-01-28T07:00:13.532Z,37.22
2023-01-28T07:02:42.233Z,49.67
2023-01-28T07:05:10.346Z,41.67
2023-01-28T07:07:41.426Z,34.53
2023-01-28T07:10:11.555Z,34.45
2023-01-28T07:12:39.851Z,32.15
2023-01-28T07:15:08.654Z,31.95
2023-01-28T07:17:36.333Z,28.33
2023-01-28T07:20:05.395Z,30.15
2023-01-28T07:22:33.296Z,30.52
2023-01-28T07:25:01.437Z,29.63
2023-01-28T07:27:29.435Z,35.97
2023-01-28T07:29:57.415Z,40.85
2023-01-28T07:32:27.487Z,41.73
2023-01-28T07:34:55.124Z,31.50
2023-01-28T07:37:22.966Z,34.83
2023-01-28T07:39:51.086Z,34.13
2023-01-28T07:42:18.639Z,37.45
2023-01-28T07:44:47.964Z,38.88
2023-01-28T07:47:15.969Z,35.95
2023-01-28T07:49:44.160Z,36.80
2023-01-28T07:52:11.837Z,26.73
2023-01-28T07:54:39.429Z,32.60
2023-01-28T07:57:09.977Z,42.83
2023-01-28T07:59:38.352Z,29.55
2023-01-28T08:02:06.188Z,23.65
2023-01-28T08:04:33.868Z,24.25
2023-01-28T08:07:01.419Z,23.92
2023-01-28T08:09:29.476Z,39.22
2023-01-28T08:11:57.476Z,23.77
2023-01-28T08:14:25.311Z,26.95
2023-01-28T08:16:52.882Z,25.42
2023-01-28T08:19:21.944Z,22.77
2023-01-28T08:21:49.554Z,23.65
2023-01-28T08:24:17.930Z,23.90
2023-01-28T08:26:48.913Z,22.88
2023-01-28T08:29:16.774Z,35.63
2023-01-28T08:31:44.352Z,47.00
2023-01-28T08:34:12.264Z,52.87
2023-01-28T08:36:40.325Z,47.38
2023-01-28T08:39:07.903Z,42.47
2023-01-28T08:41:35.871Z,36.45
2023-01-28T08:44:03.636Z,35.47
2023-01-28T08:46:31.761Z,31.67
2023-01-28T08:48:59.764Z,34.10
2023-01-28T08:51:27.720Z,29.27
2023-01-28T08:53:55.258Z,34.42
2023-01-28T08:56:23.770Z,27.98
2023-01-28T08:58:51.795Z,32.20
2023-01-28T09:01:19.481Z,26.35
2023-01-28T09:03:47.069Z,29.95
2023-01-28T09:06:14.791Z,26.58
2023-01-28T09:08:42.383Z,25.48
2023-01-28T09:11:09.920Z,26.27
2023-01-28T09:13:37.779Z,31.33
2023-01-28T09:16:06.492Z,98.05
2023-01-28T09:18:34.132Z,240.38
2023-01-28T09:21:05.667Z,26.45
2023-01-28T09:23:37.451Z,23.98
2023-01-28T09:26:06.478Z,22.60
2023-01-28T09:28:34.081Z,23.20
2023-01-28T09:31:12.870Z,19.70
2023-01-28T09:33:41.154Z,21.90
2023-01-28T09:36:11.851Z,19.15
2023-01-28T09:38:39.582Z,20.40
2023-01-28T09:41:28.598Z,20.55
2023-01-28T09:44:17.801Z,22.67
2023-01-28T09:46:45.878Z,26.42
2023-01-28T09:49:49.375Z,19.25
2023-01-28T09:52:21.016Z,27.90
2023-01-28T09:54:56.359Z,22.55
2023-01-28T09:57:26.182Z,23.10
2023-01-28T09:59:54.142Z,28.73
2023-01-28T10:02:49.771Z,28.95
2023-01-28T10:05:20.201Z,25.17
2023-01-28T10:08:07.350Z,116.78
2023-01-28T10:10:42.174Z,23.70
2023-01-28T10:13:24.220Z,22.95
2023-01-28T10:15:58.943Z,22.80
2023-01-28T10:18:50.889Z,126.50
2023-01-28T10:21:25.753Z,25.50
2023-01-28T10:24:01.635Z,444.50
2023-01-28T10:26:49.442Z,22.30
2023-01-28T10:29:24.302Z,497.80
2023-01-28T10:32:00.288Z,26.30
2023-01-28T10:34:28.528Z,629.72
2023-01-28T10:36:57.766Z,26.20
2023-01-28T10:39:26.675Z,585.55
2023-01-28T10:41:58.676Z,24.37
2023-01-28T10:44:42.071Z,29.02
2023-01-28T10:47:20.485Z,22.08
2023-01-28T10:49:53.366Z,25.90
2023-01-28T10:52:21.429Z,251.40
2023-01-28T10:54:59.900Z,22.17
2023-01-28T10:57:28.276Z,422.13
2023-01-28T10:59:56.528Z,27.58
2023-01-28T11:02:35.965Z,20.80
2023-01-28T11:05:21.836Z,25.48
2023-01-28T11:07:50.203Z,478.23
2023-01-28T11:10:37.893Z,24.10
2023-01-28T11:13:14.874Z,24.98
2023-01-28T11:15:50.177Z,22.77
2023-01-28T11:18:30.361Z,23.48
2023-01-28T11:21:16.832Z,457.05
2023-01-28T11:24:02.598Z,20.67
2023-01-28T11:26:37.037Z,356.05
2023-01-28T11:29:05.411Z,24.02
2023-01-28T11:31:42.704Z,23.08
2023-01-28T11:34:17.715Z,21.20
2023-01-28T11:36:54.416Z,554.55
2023-01-28T11:39:28.662Z,25.30
2023-01-28T11:42:11.764Z,546.60
2023-01-28T11:44:40.665Z,22.02
2023-01-28T11:47:25.204Z,561.60
2023-01-28T11:50:11.455Z,20.88
2023-01-28T11:53:06.038Z,563.17
2023-01-28T11:55:46.217Z,18.38
2023-01-28T11:58:29.624Z,18.92
2023-01-28T12:01:13.213Z,534.97
2023-01-28T12:04:03.969Z,19.30
2023-01-28T12:06:41.002Z,556.05
2023-01-28T12:09:35.308Z,19.75
2023-01-28T12:15:01.066Z,546.63
2023-01-28T12:17:53.580Z,20.42
2023-01-28T12:20:52.073Z,541.00
2023-01-28T12:23:41.794Z,20.20
2023-01-28T12:26:37.135Z,405.00
2023-01-28T12:29:35.861Z,19.83
2023-01-28T12:32:30.872Z,18.95
2023-01-28T12:35:07.994Z,17.92
2023-01-28T12:38:00.157Z,19.88
2023-01-28T12:40:46.821Z,595.17
2023-01-28T12:43:27.490Z,569.40
2023-01-28T12:46:03.600Z,582.50
2023-01-28T12:48:41.239Z,246.98
2023-01-28T12:51:18.854Z,19.60
2023-01-28T12:54:02.592Z,18.17
2023-01-28T12:56:35.648Z,19.48
2023-01-28T12:59:15.524Z,20.73
2023-01-28T13:02:01.597Z,17.48
2023-01-28T13:04:40.174Z,17.45
2023-01-28T13:07:19.380Z,18.15
2023-01-28T13:09:55.374Z,20.48
2023-01-28T13:12:23.868Z,21.13
2023-01-28T13:14:54.262Z,16.65
2023-01-28T13:17:29.052Z,14.85
2023-01-28T13:19:58.044Z,15.15
2023-01-28T13:22:36.016Z,19.00
2023-01-28T13:25:27.179Z,15.40
2023-01-28T13:28:04.388Z,17.38
2023-01-28T13:30:49.362Z,18.20
2023-01-28T13:33:30.522Z,18.30
2023-01-28T13:36:07.681Z,15.57
2023-01-28T13:38:36.436Z,352.98
2023-01-28T13:41:07.695Z,14.80
2023-01-28T13:43:38.704Z,15.82
2023-01-28T13:46:10.490Z,14.98
2023-01-28T13:48:52.119Z,15.95
2023-01-28T13:51:35.624Z,16.23
2023-01-28T13:54:12.693Z,103.65
2023-01-28T13:57:03.476Z,157.73
2023-01-28T13:59:44.407Z,334.67
2023-01-28T14:02:30.671Z,154.90
2023-01-28T14:05:22.440Z,18.10
2023-01-28T14:08:08.525Z,14.73
2023-01-28T14:10:39.079Z,14.52
2023-01-28T14:13:28.203Z,14.25
2023-01-28T14:16:12.952Z,13.38
2023-01-28T14:18:45.756Z,14.73
2023-01-28T14:21:17.387Z,459.08
2023-01-28T14:23:48.763Z,13.57
2023-01-28T14:26:43.222Z,13.90
2023-01-28T14:29:10.893Z,431.60
2023-01-28T14:31:39.830Z,11.10
2023-01-28T14:34:28.963Z,12.68
2023-01-28T14:37:08.314Z,79.40
2023-01-28T14:39:44.864Z,370.15
2023-01-28T14:42:49.593Z,17.15
2023-01-28T14:47:51.091Z,283.85
2023-01-28T14:50:39.810Z,22.45
2023-01-28T14:53:43.974Z,25.30
2023-01-28T14:56:36.494Z,217.55
2023-01-28T14:59:38.086Z,14.75
2023-01-28T15:02:42.958Z,20.73
2023-01-28T15:05:20.116Z,140.38
2023-01-28T15:07:49.206Z,16.52
2023-01-28T15:10:18.891Z,399.48
2023-01-28T15:12:54.556Z,12.13
2023-01-28T15:15:34.905Z,636.53
2023-01-28T15:18:08.467Z,16.95
2023-01-28T15:20:36.261Z,14.88
2023-01-28T15:23:07.594Z,14.48
2023-01-28T15:25:35.712Z,14.43
2023-01-28T15:28:03.686Z,15.98
2023-01-28T15:30:32.680Z,16.35
2023-01-28T15:33:15.183Z,13.80
2023-01-28T15:35:54.503Z,19.08
2023-01-28T15:38:23.343Z,15.75
2023-01-28T15:41:02.396Z,13.20
2023-01-28T15:43:36.630Z,13.10
2023-01-28T15:46:11.614Z,13.45
2023-01-28T15:48:44.258Z,15.05
2023-01-28T15:51:25.745Z,15.07
2023-01-28T15:53:58.297Z,14.82
2023-01-28T15:56:29.276Z,16.90
2023-01-28T15:59:08.649Z,16.83
2023-01-28T16:01:36.821Z,16.38
2023-01-28T16:04:09.639Z,15.90
2023-01-28T16:06:39.758Z,17.75
2023-01-28T16:09:28.195Z,17.97
2023-01-28T16:12:04.210Z,20.00
2023-01-28T16:14:40.676Z,17.67
2023-01-28T16:17:09.655Z,19.13
2023-01-28T16:19:41.735Z,18.45
2023-01-28T16:22:23.309Z,20.10
2023-01-28T16:24:53.272Z,18.38
2023-01-28T16:27:33.472Z,17.40
2023-01-28T16:30:01.658Z,20.20
2023-01-28T16:32:37.830Z,18.02
2023-01-28T16:35:18.215Z,23.58
2023-01-28T16:37:47.699Z,22.40
2023-01-28T16:40:20.857Z,23.42
2023-01-28T16:42:49.080Z,19.60
2023-01-28T16:45:23.291Z,20.77
2023-01-28T16:47:52.145Z,20.33
2023-01-28T16:50:22.034Z,27.33
2023-01-28T16:52:51.652Z,28.98
2023-01-28T16:55:21.379Z,22.67
2023-01-28T16:57:53.130Z,25.90
2023-01-28T17:00:26.044Z,23.65
2023-01-28T17:02:54.604Z,36.93
2023-01-28T17:05:23.293Z,20.45
2023-01-28T17:07:51.131Z,22.63
2023-01-28T17:10:20.581Z,24.08
2023-01-28T17:12:48.960Z,25.83
2023-01-28T17:15:17.151Z,33.17
2023-01-28T17:17:49.409Z,30.88
2023-01-28T17:20:17.443Z,34.58
2023-01-28T17:22:45.663Z,48.67
2023-01-28T17:25:14.866Z,37.33
2023-01-28T17:27:43.027Z,41.23
2023-01-28T17:30:11.291Z,43.40
2023-01-28T17:32:39.305Z,34.90
2023-01-28T17:35:07.518Z,36.15
2023-01-28T17:37:38.374Z,37.10
2023-01-28T17:40:06.602Z,44.03
2023-01-28T17:42:34.154Z,39.35
2023-01-28T17:45:03.291Z,35.50
2023-01-28T17:47:31.907Z,48.67
2023-01-28T17:50:00.536Z,53.97
2023-01-28T17:52:28.241Z,47.10
2023-01-28T17:54:55.872Z,47.85
2023-01-28T17:57:23.495Z,38.95
2023-01-28T17:59:51.076Z,43.33
2023-01-28T18:02:19.052Z,41.75
2023-01-28T18:04:46.725Z,47.35
2023-01-28T18:07:14.726Z,44.80
2023-01-28T18:09:47.518Z,38.97
2023-01-28T18:12:16.613Z,43.05
2023-01-28T18:14:44.230Z,38.83
2023-01-28T18:17:11.941Z,43.37
2023-01-28T18:19:39.855Z,48.15
2023-01-28T18:22:08.670Z,43.40
2023-01-28T18:24:36.465Z,47.45
2023-01-28T18:27:04.277Z,42.80
2023-01-28T18:29:32.065Z,42.63
2023-01-28T18:31:59.796Z,45.58
2023-01-28T18:34:31.570Z,49.08
2023-01-28T18:36:59.364Z,52.55
2023-01-28T18:39:30.358Z,56.53
2023-01-28T18:41:59.121Z,57.00
2023-01-28T18:44:30.194Z,54.80
2023-01-28T18:46:57.953Z,52.70
2023-01-28T18:49:26.009Z,44.53
2023-01-28T18:51:54.175Z,43.90
2023-01-28T18:54:23.211Z,39.75
2023-01-28T18:56:51.315Z,44.30
2023-01-28T18:59:19.100Z,44.95
2023-01-28T19:01:48.020Z,46.53
2023-01-28T19:04:16.681Z,52.60
2023-01-28T19:06:45.291Z,40.72
2023-01-28T19:09:14.756Z,45.35
2023-01-28T19:11:43.114Z,47.05
2023-01-28T19:14:14.394Z,48.58
2023-01-28T19:16:42.813Z,47.83
2023-01-28T19:19:11.100Z,55.05
2023-01-28T19:21:38.728Z,45.15
2023-01-28T19:24:09.799Z,44.75
2023-01-28T19:26:38.159Z,50.53
2023-01-28T19:29:11.023Z,51.75
2023-01-28T19:31:39.987Z,43.40
2023-01-28T19:34:13.082Z,44.47
2023-01-28T19:36:42.323Z,44.03
2023-01-28T19:39:12.144Z,42.58
2023-01-28T19:41:40.271Z,45.83
2023-01-28T19:44:08.679Z,40.25
2023-01-28T19:46:36.580Z,43.60
2023-01-28T19:49:06.536Z,45.45
2023-01-28T19:51:34.853Z,45.28
2023-01-28T19:54:02.808Z,45.17
2023-01-28T19:56:30.668Z,45.53
2023-01-28T19:58:58.238Z,49.25
2023-01-28T20:01:30.136Z,48.38
2023-01-28T20:04:00.177Z,48.20
2023-01-28T20:06:30.450Z,51.95
2023-01-28T20:09:07.820Z,55.63
2023-01-28T20:11:36.033Z,60.78
2023-01-28T20:14:04.064Z,60.42
2023-01-28T20:16:33.970Z,65.27
2023-01-28T20:19:08.337Z,50.40
2023-01-28T20:21:37.179Z,54.53
2023-01-28T20:24:06.648Z,52.55
2023-01-28T20:26:37.480Z,57.15
2023-01-28T20:29:11.395Z,562.42
2023-01-28T20:31:40.853Z,582.50
2023-01-28T20:34:16.674Z,490.30
2023-01-28T20:36:44.833Z,537.10
2023-01-28T20:39:13.666Z,531.25
2023-01-28T20:41:41.212Z,545.20
2023-01-28T20:44:09.468Z,549.22
2023-01-28T20:46:38.877Z,559.08
2023-01-28T20:49:07.136Z,539.50
2023-01-28T20:51:35.939Z,515.17
2023-01-28T20:54:04.397Z,516.83
2023-01-28T20:56:32.167Z,555.83
2023-01-28T20:59:04.689Z,581.07
2023-01-28T21:01:35.310Z,572.90
2023-01-28T21:04:10.560Z,571.92
2023-01-28T21:06:40.111Z,582.75
2023-01-28T21:09:08.256Z,585.58
2023-01-28T21:11:36.528Z,589.47
2023-01-28T21:14:04.219Z,581.22
2023-01-28T21:16:32.295Z,578.65
2023-01-28T21:19:00.048Z,583.90
2023-01-28T21:21:29.297Z,578.40
2023-01-28T21:23:59.988Z,585.80
2023-01-28T21:26:28.243Z,582.70
2023-01-28T21:28:56.362Z,573.85
2023-01-28T21:31:25.779Z,568.10
2023-01-28T21:33:56.107Z,575.58
2023-01-28T21:36:25.309Z,581.30
2023-01-28T21:38:54.966Z,575.85
2023-01-28T21:41:22.756Z,579.08
2023-01-28T21:43:54.245Z,567.80
2023-01-28T21:46:32.938Z,546.10
2023-01-28T21:49:03.388Z,483.63
2023-01-28T21:51:46.048Z,503.02
2023-01-28T21:54:19.273Z,489.00
2023-01-28T21:56:49.508Z,490.45
2023-01-28T21:59:30.856Z,574.95
2023-01-28T22:02:07.457Z,579.20
2023-01-28T22:04:38.190Z,573.40
2023-01-28T22:07:09.541Z,579.30
2023-01-28T22:09:38.074Z,575.22
2023-01-28T22:12:10.103Z,578.33
2023-01-28T22:14:39.440Z,571.38
2023-01-28T22:17:09.192Z,574.97
2023-01-28T22:19:37.915Z,570.77
2023-01-28T22:22:05.995Z,573.42
2023-01-28T22:24:34.022Z,576.67
2023-01-28T22:27:01.839Z,576.22
2023-01-28T22:29:29.826Z,556.60
2023-01-28T22:31:57.391Z,565.30
2023-01-28T22:34:25.301Z,556.70
2023-01-28T22:36:53.311Z,545.42
2023-01-28T22:39:41.654Z,547.67
2023-01-28T22:42:23.071Z,555.50
2023-01-28T22:44:50.740Z,571.60
2023-01-28T22:47:19.270Z,577.72
2023-01-28T22:49:46.757Z,564.42
2023-01-28T22:52:14.237Z,566.92
2023-01-28T22:54:42.715Z,574.53
2023-01-28T22:57:10.363Z,575.58
2023-01-28T22:59:41.792Z,572.92
2023-01-28T23:02:10.069Z,576.83
2023-01-28T23:04:37.709Z,575.03
2023-01-28T23:07:05.657Z,586.55
2023-01-28T23:09:35.520Z,564.40
2023-01-28T23:12:03.085Z,572.95
2023-01-28T23:14:49.730Z,567.47
2023-01-28T23:17:37.055Z,563.38
2023-01-28T23:20:23.696Z,557.25
2023-01-28T23:23:10.106Z,169.70
2023-01-28T23:25:38.168Z,187.73
2023-01-28T23:28:06.095Z,47.13
2023-01-28T23:30:34.687Z,40.65
2023-01-28T23:33:03.400Z,44.65
2023-01-28T23:35:32.753Z,35.63
2023-01-28T23:38:00.291Z,249.18
2023-01-28T23:40:28.409Z,142.27
2023-01-28T23:42:56.321Z,40.35
2023-01-28T23:45:24.532Z,45.33
2023-01-28T23:47:52.548Z,34.75
2023-01-28T23:50:21.121Z,37.35
2023-01-28T23:52:49.249Z,488.57
2023-01-28T23:55:17.074Z,418.08
2023-01-28T23:57:44.670Z,463.23
